Time;durP1;ratioP1;P1;durP2;ratioP2;P2;SDS_P1;SDS_P2;PMS_P1;PMS_P2;Temp;Humidity;BMP_temperature;BMP_pressure;BME280_temperature;BME280_humidity;BME280_pressure;Samples;Min_cycle;Max_cycle;Signal;HPM_P1;HPM_P2
2021/01/22 00:00:07;;;;;;;7.03;4.25;;;3.20;99.90;;;;;;5009972;28;20044;-77
2021/01/22 00:02:33;;;;;;;6.75;4.13;;;3.30;99.90;;;;;;5031171;28;20112;-76
2021/01/22 00:04:58;;;;;;;4.70;3.08;;;3.30;99.90;;;;;;4996588;28;20063;-76
2021/01/22 00:07:24;;;;;;;6.00;2.67;;;3.30;99.90;;;;;;5028902;28;20027;-76
2021/01/22 00:09:50;;;;;;;3.88;2.63;;;3.50;99.90;;;;;;5012334;28;20026;-78
2021/01/22 00:12:16;;;;;;;2.95;2.25;;;3.60;99.90;;;;;;5030452;28;20044;-76
2021/01/22 00:14:42;;;;;;;5.78;3.05;;;3.70;99.90;;;;;;5014813;28;20460;-78
2021/01/22 00:17:07;;;;;;;4.55;2.65;;;3.70;99.90;;;;;;5000027;28;20056;-78
2021/01/22 00:19:33;;;;;;;8.48;3.38;;;3.60;99.90;;;;;;5011565;28;20080;-77
2021/01/22 00:21:59;;;;;;;3.03;2.38;;;3.60;99.90;;;;;;5001393;28;20413;-78
2021/01/22 00:24:25;;;;;;;4.30;3.13;;;3.60;99.90;;;;;;5038857;28;20638;-78
2021/01/22 00:26:50;;;;;;;3.90;2.40;;;3.60;99.90;;;;;;5003350;28;20030;-78
2021/01/22 00:29:16;;;;;;;4.03;2.78;;;3.50;99.90;;;;;;5004554;28;20095;-78
2021/01/22 00:31:42;;;;;;;3.55;2.38;;;3.50;99.90;;;;;;5038537;28;20026;-78
2021/01/22 00:34:08;;;;;;;4.22;2.10;;;3.50;99.90;;;;;;5021809;28;20127;-78
2021/01/22 00:36:33;;;;;;;4.43;2.78;;;3.60;99.90;;;;;;5017260;28;20082;-78
2021/01/22 00:38:59;;;;;;;3.30;2.10;;;3.60;99.90;;;;;;5004664;28;20044;-77
2021/01/22 00:41:25;;;;;;;2.83;2.10;;;3.70;99.90;;;;;;5039133;28;20029;-76
2021/01/22 00:43:53;;;;;;;5.55;1.75;;;3.80;99.90;;;;;;5004999;28;20110;-77
2021/01/22 00:46:18;;;;;;;2.60;1.50;;;3.90;99.90;;;;;;5017062;28;20045;-77
2021/01/22 00:48:44;;;;;;;2.03;1.42;;;4.00;99.90;;;;;;5014525;28;20043;-77
2021/01/22 00:51:10;;;;;;;3.90;1.27;;;4.10;99.90;;;;;;5019802;28;20033;-78
2021/01/22 00:53:37;;;;;;;1.52;0.95;;;4.20;99.90;;;;;;5018110;28;20519;-77
2021/01/22 00:56:03;;;;;;;1.30;1.02;;;4.30;99.90;;;;;;5018588;28;20536;-76
2021/01/22 00:58:38;;;;;;;1.38;0.85;;;4.40;99.90;;;;;;5003671;28;20596;-76
2021/01/22 01:01:33;;;;;;;0.70;0.60;;;4.40;99.90;;;;;;5009173;28;20037;-77
2021/01/22 01:04:00;;;;;;;0.98;0.38;;;4.60;99.90;;;;;;5016636;28;20040;-77
2021/01/22 01:06:29;;;;;;;0.35;0.35;;;4.80;99.90;;;;;;5013842;28;20045;-76
2021/01/22 01:08:55;;;;;;;0.50;0.43;;;5.00;99.90;;;;;;5014981;28;20036;-77
2021/01/22 01:11:44;;;;;;;0.52;0.28;;;5.00;99.90;;;;;;5010387;28;20405;-76
2021/01/22 01:14:33;;;;;;;0.50;0.30;;;5.00;99.90;;;;;;5004051;28;20456;-76
2021/01/22 01:16:59;;;;;;;0.88;0.50;;;5.10;99.90;;;;;;4997192;28;20030;-77
2021/01/22 01:19:25;;;;;;;1.00;0.55;;;5.10;99.90;;;;;;5033988;28;20116;-77
2021/01/22 01:21:50;;;;;;;0.63;0.57;;;5.00;99.90;;;;;;5017708;28;20503;-77
2021/01/22 01:24:16;;;;;;;0.68;0.60;;;5.00;99.90;;;;;;5026731;28;20036;-78
2021/01/22 01:26:42;;;;;;;1.75;0.70;;;5.00;99.90;;;;;;5032172;28;20050;-78
2021/01/22 01:29:07;;;;;;;0.82;0.77;;;4.90;99.90;;;;;;5017697;28;20040;-78
2021/01/22 01:31:34;;;;;;;0.60;0.60;;;4.90;99.90;;;;;;5044822;28;20038;-78
2021/01/22 01:33:59;;;;;;;1.50;0.70;;;4.90;99.90;;;;;;5021277;28;20056;-78
2021/01/22 01:36:25;;;;;;;0.88;0.55;;;4.80;99.90;;;;;;5055467;28;20104;-79
2021/01/22 01:38:51;;;;;;;1.25;0.77;;;4.70;99.90;;;;;;5040417;28;20063;-79
2021/01/22 01:41:17;;;;;;;1.08;0.73;;;4.60;99.90;;;;;;5041183;28;20040;-79
2021/01/22 01:43:42;;;;;;;0.80;0.80;;;4.50;99.90;;;;;;5036714;28;20033;-79
2021/01/22 01:46:08;;;;;;;1.10;0.77;;;4.50;99.90;;;;;;5004444;28;20483;-78
2021/01/22 01:48:34;;;;;;;2.90;1.05;;;4.50;99.90;;;;;;5001996;28;20108;-78
2021/01/22 01:51:00;;;;;;;1.75;0.90;;;4.60;99.90;;;;;;5029856;28;20030;-79
2021/01/22 01:53:27;;;;;;;0.93;0.85;;;4.50;99.90;;;;;;5019759;28;20383;-78
2021/01/22 01:55:53;;;;;;;0.80;0.60;;;4.60;99.90;;;;;;5021279;28;20021;-79
2021/01/22 01:58:19;;;;;;;0.60;0.60;;;4.60;99.90;;;;;;5018135;28;20146;-79
2021/01/22 02:00:45;;;;;;;2.08;1.30;;;4.60;99.90;;;;;;5025241;28;20044;-76
2021/01/22 02:03:11;;;;;;;1.42;0.95;;;4.60;99.90;;;;;;5000874;28;20065;-77
2021/01/22 02:05:37;;;;;;;1.30;1.20;;;4.80;99.90;;;;;;5000454;28;20067;-77
2021/01/22 02:08:04;;;;;;;3.55;1.10;;;4.80;99.90;;;;;;5035712;28;20029;-77
2021/01/22 02:10:30;;;;;;;1.00;0.90;;;4.80;99.90;;;;;;5037930;28;20060;-78
2021/01/22 02:12:57;;;;;;;0.93;0.90;;;4.80;99.90;;;;;;5035481;28;20433;-76
2021/01/22 02:15:23;;;;;;;1.52;1.00;;;4.80;99.90;;;;;;5032401;28;20421;-76
2021/01/22 02:17:51;;;;;;;1.80;1.02;;;4.90;99.90;;;;;;5032071;28;20022;-76
2021/01/22 02:20:23;;;;;;;1.15;0.82;;;4.90;99.90;;;;;;5030951;28;20504;-76
2021/01/22 02:22:50;;;;;;;1.10;0.82;;;5.00;99.90;;;;;;5032702;28;20458;-77
2021/01/22 02:25:20;;;;;;;1.25;0.80;;;5.00;99.90;;;;;;5014056;28;20029;-76
2021/01/22 02:27:46;;;;;;;1.33;1.17;;;5.00;99.90;;;;;;5029405;28;20049;-76
2021/01/22 02:30:13;;;;;;;1.60;0.93;;;5.00;99.90;;;;;;5030980;28;20041;-76
2021/01/22 02:32:44;;;;;;;2.05;0.88;;;4.90;99.90;;;;;;5012622;28;20021;-76
2021/01/22 02:35:12;;;;;;;1.33;0.98;;;4.90;99.90;;;;;;4995179;28;20083;-77
2021/01/22 02:37:41;;;;;;;1.20;0.85;;;4.80;99.90;;;;;;5033483;28;20238;-78
2021/01/22 02:40:09;;;;;;;2.47;1.00;;;4.70;99.90;;;;;;5016655;28;20033;-77
2021/01/22 02:42:40;;;;;;;1.98;1.20;;;4.70;99.90;;;;;;5034773;28;20044;-77
2021/01/22 02:45:09;;;;;;;1.90;1.30;;;4.70;99.90;;;;;;5033755;28;20038;-77
2021/01/22 02:47:36;;;;;;;1.83;1.17;;;4.60;99.90;;;;;;5015088;28;20251;-76
2021/01/22 02:50:03;;;;;;;3.08;1.10;;;4.60;99.90;;;;;;5034487;28;20119;-77
2021/01/22 02:52:29;;;;;;;1.50;1.15;;;4.50;99.90;;;;;;5033353;28;20521;-76
2021/01/22 02:54:55;;;;;;;2.92;1.02;;;4.50;99.90;;;;;;5016522;28;20075;-77
2021/01/22 02:57:37;;;;;;;1.45;1.05;;;4.50;99.90;;;;;;4995322;28;20889;-77
2021/01/22 03:00:25;;;;;;;1.73;1.05;;;4.50;99.90;;;;;;5029828;28;20497;-76
2021/01/22 03:02:57;;;;;;;1.30;1.20;;;4.50;99.90;;;;;;5016257;28;20025;-78
2021/01/22 03:05:25;;;;;;;1.67;1.25;;;4.50;99.90;;;;;;5019419;28;20022;-78
2021/01/22 03:07:55;;;;;;;1.05;0.95;;;4.50;99.90;;;;;;5016966;28;20034;-77
2021/01/22 03:10:24;;;;;;;2.75;1.40;;;4.50;99.90;;;;;;5001906;28;20036;-78
2021/01/22 03:12:52;;;;;;;1.65;1.15;;;4.50;99.90;;;;;;5018380;28;20397;-77
2021/01/22 03:15:20;;;;;;;1.90;1.15;;;4.50;99.90;;;;;;5017885;28;20112;-77
2021/01/22 03:17:45;;;;;;;3.78;1.13;;;4.50;99.90;;;;;;5016299;28;20068;-78
2021/01/22 03:20:14;;;;;;;2.35;1.00;;;4.50;99.90;;;;;;5036611;28;20022;-78
2021/01/22 03:22:40;;;;;;;1.30;0.98;;;4.50;99.90;;;;;;5036785;28;20510;-78
2021/01/22 03:25:07;;;;;;;2.08;1.10;;;4.40;99.90;;;;;;5037017;28;20025;-77
2021/01/22 03:27:32;;;;;;;1.48;1.20;;;4.40;99.90;;;;;;5033147;28;20033;-79
2021/01/22 03:29:58;;;;;;;1.00;0.80;;;4.40;99.90;;;;;;5035186;28;20060;-78
2021/01/22 03:32:24;;;;;;;1.50;0.60;;;4.30;99.90;;;;;;5017786;28;20087;-78
2021/01/22 03:34:50;;;;;;;1.25;0.70;;;4.30;99.90;;;;;;5038360;28;20048;-78
2021/01/22 03:37:16;;;;;;;1.10;0.55;;;4.20;99.90;;;;;;5001930;28;20405;-79
2021/01/22 03:39:41;;;;;;;0.60;0.50;;;4.20;99.90;;;;;;5017497;28;20029;-77
2021/01/22 03:42:07;;;;;;;0.82;0.55;;;4.40;99.90;;;;;;5020663;28;20091;-78
2021/01/22 03:44:33;;;;;;;0.75;0.50;;;4.50;99.90;;;;;;5028598;28;20041;-78
2021/01/22 03:46:58;;;;;;;0.57;0.32;;;4.70;99.90;;;;;;5016153;28;20101;-78
2021/01/22 03:49:24;;;;;;;0.70;0.50;;;4.80;99.90;;;;;;5001442;28;20044;-78
2021/01/22 03:51:50;;;;;;;0.47;0.30;;;4.90;99.90;;;;;;5014645;28;20034;-77
2021/01/22 03:54:16;;;;;;;0.30;0.20;;;5.00;99.90;;;;;;5038134;28;20509;-77
2021/01/22 03:56:42;;;;;;;1.08;0.32;;;5.10;99.90;;;;;;5038294;28;20021;-78
2021/01/22 03:59:07;;;;;;;0.65;0.40;;;5.20;99.90;;;;;;5038449;28;20508;-78
2021/01/22 04:01:33;;;;;;;2.75;0.30;;;5.30;99.90;;;;;;5001793;28;20037;-78
2021/01/22 04:03:59;;;;;;;0.30;0.30;;;5.30;99.90;;;;;;5018232;28;20042;-78
2021/01/22 04:06:25;;;;;;;0.38;0.35;;;5.30;99.90;;;;;;5016684;28;20061;-78
2021/01/22 04:08:51;;;;;;;0.38;0.25;;;5.40;99.90;;;;;;5019196;28;20041;-78
2021/01/22 04:11:17;;;;;;;0.47;0.35;;;5.30;99.90;;;;;;5037319;28;20037;-78
2021/01/22 04:13:44;;;;;;;0.30;0.30;;;5.30;99.90;;;;;;5037554;28;20021;-77
2021/01/22 04:16:11;;;;;;;0.70;0.40;;;5.30;99.90;;;;;;5019235;28;20104;-77
2021/01/22 04:18:38;;;;;;;0.25;0.22;;;5.40;99.90;;;;;;5019254;28;20389;-77
2021/01/22 04:21:04;;;;;;;0.40;0.22;;;5.40;99.90;;;;;;5036304;28;20044;-78
2021/01/22 04:23:30;;;;;;;0.75;0.50;;;5.40;99.90;;;;;;5019482;28;20073;-78
2021/01/22 04:25:55;;;;;;;0.50;0.43;;;5.50;99.90;;;;;;5002759;28;20068;-77
2021/01/22 04:28:21;;;;;;;0.40;0.30;;;5.40;99.90;;;;;;5034703;28;20037;-78
2021/01/22 04:30:47;;;;;;;0.40;0.30;;;5.40;99.90;;;;;;5036672;28;20059;-78
2021/01/22 04:33:12;;;;;;;0.47;0.28;;;5.40;99.90;;;;;;5018109;28;20429;-77
2021/01/22 04:35:38;;;;;;;2.75;0.40;;;5.40;99.90;;;;;;5019096;28;20057;-78
2021/01/22 04:38:04;;;;;;;0.28;0.28;;;5.40;99.90;;;;;;5036030;28;20396;-78
2021/01/22 04:40:30;;;;;;;1.45;0.57;;;5.40;99.90;;;;;;5019373;28;20094;-78
2021/01/22 04:42:56;;;;;;;0.30;0.22;;;5.40;99.90;;;;;;5015046;28;20037;-77
2021/01/22 04:45:22;;;;;;;1.67;0.30;;;5.30;99.90;;;;;;5002274;28;20543;-78
2021/01/22 04:47:48;;;;;;;1.10;0.40;;;5.30;99.90;;;;;;5034908;28;20041;-77
2021/01/22 04:50:16;;;;;;;1.02;0.40;;;5.40;99.90;;;;;;5017846;28;20040;-78
2021/01/22 04:52:42;;;;;;;1.70;0.50;;;5.30;99.90;;;;;;5018648;28;20509;-78
2021/01/22 04:55:12;;;;;;;0.47;0.20;;;5.30;99.90;;;;;;5002355;28;20033;-78
2021/01/22 04:57:41;;;;;;;2.53;0.30;;;5.30;99.90;;;;;;5016397;28;20037;-78
2021/01/22 05:00:08;;;;;;;0.30;0.20;;;5.30;99.90;;;;;;5018223;28;20022;-78
2021/01/22 05:02:34;;;;;;;0.47;0.30;;;5.20;99.90;;;;;;5035536;28;20038;-78
2021/01/22 05:05:00;;;;;;;0.40;0.20;;;5.30;99.90;;;;;;5016886;28;20524;-78
2021/01/22 05:07:29;;;;;;;0.52;0.40;;;5.30;99.90;;;;;;5033370;28;20105;-76
2021/01/22 05:09:55;;;;;;;0.63;0.30;;;5.30;99.90;;;;;;5016859;28;20104;-78
2021/01/22 05:12:21;;;;;;;0.82;0.40;;;5.40;99.90;;;;;;5017013;28;20047;-78
2021/01/22 05:14:47;;;;;;;0.50;0.30;;;5.50;99.90;;;;;;5035565;28;20034;-78
2021/01/22 05:17:13;;;;;;;0.50;0.40;;;5.50;99.90;;;;;;5034207;28;20494;-78
2021/01/22 05:19:41;;;;;;;0.30;0.30;;;5.50;99.90;;;;;;5031810;28;20064;-77
2021/01/22 05:22:12;;;;;;;1.13;0.22;;;5.50;99.90;;;;;;5008710;28;20045;-78
2021/01/22 05:24:37;;;;;;;1.95;0.35;;;5.50;99.90;;;;;;5017361;28;20413;-78
2021/01/22 05:27:11;;;;;;;0.45;0.28;;;5.50;99.90;;;;;;5016203;28;20038;-77
2021/01/22 05:29:39;;;;;;;0.32;0.20;;;5.50;99.90;;;;;;5016719;28;20164;-77
2021/01/22 05:32:29;;;;;;;0.65;0.40;;;5.50;99.90;;;;;;5017333;28;20040;-77
2021/01/22 05:34:56;;;;;;;0.32;0.28;;;5.50;99.90;;;;;;5011765;28;20052;-78
2021/01/22 05:37:24;;;;;;;0.70;0.20;;;5.50;99.90;;;;;;5012704;28;20030;-78
2021/01/22 05:40:19;;;;;;;0.75;0.32;;;5.40;99.90;;;;;;5014778;28;20034;-77
2021/01/22 05:42:53;;;;;;;0.32;0.30;;;5.50;99.90;;;;;;4997511;28;20111;-77
2021/01/22 05:45:44;;;;;;;2.00;0.45;;;5.50;99.90;;;;;;5015434;28;20025;-78
2021/01/22 05:48:24;;;;;;;0.50;0.40;;;5.50;99.90;;;;;;5021252;28;20119;-78
2021/01/22 05:50:52;;;;;;;1.30;0.22;;;5.50;99.90;;;;;;5035357;28;20029;-77
2021/01/22 05:53:20;;;;;;;1.13;0.45;;;5.60;99.90;;;;;;5000940;28;20109;-78
2021/01/22 05:56:08;;;;;;;0.47;0.20;;;5.50;99.90;;;;;;4996719;28;20140;-78
2021/01/22 05:58:35;;;;;;;2.75;0.50;;;5.50;99.90;;;;;;5017327;28;20083;-78
2021/01/22 06:01:15;;;;;;;0.40;0.35;;;5.50;99.90;;;;;;5001097;28;20056;-78
2021/01/22 06:03:42;;;;;;;0.77;0.40;;;5.50;99.90;;;;;;5017493;28;20511;-78
2021/01/22 06:06:09;;;;;;;0.73;0.20;;;5.50;99.90;;;;;;5034828;28;20039;-77
2021/01/22 06:08:59;;;;;;;0.47;0.43;;;5.50;99.90;;;;;;4984080;28;20033;-77
2021/01/22 06:11:27;;;;;;;1.27;0.30;;;5.50;99.90;;;;;;5015849;28;20033;-78
2021/01/22 06:13:55;;;;;;;0.73;0.40;;;5.40;99.90;;;;;;5015065;28;20022;-79
2021/01/22 06:16:27;;;;;;;0.38;0.30;;;5.40;99.90;;;;;;4996220;28;20036;-80
2021/01/22 06:19:07;;;;;;;1.40;0.47;;;5.30;99.90;;;;;;5000390;28;20055;-77
2021/01/22 06:22:04;;;;;;;1.52;0.32;;;5.30;99.90;;;;;;5034823;28;20048;-78
2021/01/22 06:24:30;;;;;;;0.55;0.20;;;5.30;99.90;;;;;;5001342;28;20033;-77
2021/01/22 06:26:56;;;;;;;0.50;0.40;;;5.30;99.90;;;;;;5016006;28;20073;-77
2021/01/22 06:29:22;;;;;;;0.30;0.20;;;5.30;99.90;;;;;;5016816;28;20064;-78
2021/01/22 06:31:50;;;;;;;2.15;0.35;;;5.20;99.90;;;;;;5000443;28;20029;-78
2021/01/22 06:34:16;;;;;;;1.10;0.40;;;5.20;99.90;;;;;;5017101;28;20036;-78
2021/01/22 06:36:46;;;;;;;0.75;0.50;;;5.20;99.90;;;;;;5007732;28;20037;-77
2021/01/22 06:39:13;;;;;;;0.45;0.30;;;5.30;99.90;;;;;;5016150;28;20040;-77
2021/01/22 06:41:39;;;;;;;1.15;0.35;;;5.20;99.90;;;;;;5024816;28;20047;-77
2021/01/22 06:44:05;;;;;;;2.80;0.40;;;5.20;99.90;;;;;;5042176;28;20037;-78
2021/01/22 06:46:33;;;;;;;1.60;0.57;;;5.10;99.90;;;;;;5045185;28;20056;-78
2021/01/22 06:49:00;;;;;;;2.35;0.60;;;5.10;99.90;;;;;;5026684;28;20042;-77
2021/01/22 06:51:30;;;;;;;0.60;0.50;;;5.10;99.90;;;;;;5006633;28;20497;-78
2021/01/22 06:54:06;;;;;;;2.92;0.55;;;5.10;99.90;;;;;;5031024;28;20045;-78
2021/01/22 06:56:33;;;;;;;3.00;0.55;;;5.10;99.90;;;;;;5021513;28;20042;-78
2021/01/22 06:59:32;;;;;;;1.08;0.55;;;5.10;99.90;;;;;;5019739;28;20044;-78
2021/01/22 07:01:58;;;;;;;0.82;0.30;;;5.10;99.90;;;;;;5030356;28;20097;-77
2021/01/22 07:04:33;;;;;;;4.28;0.50;;;5.00;99.90;;;;;;5050746;28;20049;-77
2021/01/22 07:07:01;;;;;;;0.50;0.40;;;5.00;99.90;;;;;;4997566;28;20047;-79
2021/01/22 07:09:57;;;;;;;1.38;0.55;;;5.00;99.90;;;;;;5004425;28;20033;-78
2021/01/22 07:12:35;;;;;;;2.20;0.52;;;5.00;99.90;;;;;;5043764;28;20036;-78
2021/01/22 07:15:01;;;;;;;1.40;0.40;;;5.00;99.90;;;;;;5050001;28;20119;-79
2021/01/22 07:17:29;;;;;;;0.95;0.40;;;5.00;99.90;;;;;;5014181;28;20034;-78
2021/01/22 07:20:09;;;;;;;0.55;0.32;;;4.90;99.90;;;;;;5024882;28;20034;-78
2021/01/22 07:22:51;;;;;;;1.33;0.50;;;4.90;99.90;;;;;;5022280;28;20041;-77
2021/01/22 07:25:37;;;;;;;4.13;0.65;;;5.00;99.90;;;;;;5036727;28;20094;-78
2021/01/22 07:28:04;;;;;;;0.98;0.25;;;5.00;99.90;;;;;;5021306;28;20060;-78
2021/01/22 07:30:40;;;;;;;1.60;0.40;;;5.00;99.90;;;;;;5042802;28;20029;-78
2021/01/22 07:33:35;;;;;;;;;;;5.00;99.90;;;;;;5017525;28;20044;-78
2021/01/22 07:36:11;;;;;;;1.45;0.50;;;5.00;99.90;;;;;;5041171;28;19940;-78
2021/01/22 07:38:39;;;;;;;1.58;0.40;;;5.10;99.90;;;;;;5062418;28;20496;-77
2021/01/22 07:41:05;;;;;;;2.33;0.43;;;5.10;99.90;;;;;;5044957;28;20060;-79
2021/01/22 07:43:31;;;;;;;1.17;0.47;;;5.20;99.90;;;;;;5039703;28;20473;-78
2021/01/22 07:46:07;;;;;;;0.70;0.22;;;5.10;99.90;;;;;;5033013;28;20531;-78
2021/01/22 07:48:34;;;;;;;0.75;0.50;;;5.10;99.90;;;;;;5056655;28;20064;-76
2021/01/22 07:51:00;;;;;;;2.20;0.40;;;5.20;99.90;;;;;;5029417;28;20044;-78
2021/01/22 07:53:26;;;;;;;0.40;0.40;;;5.20;99.90;;;;;;5033099;28;20029;-79
2021/01/22 07:55:53;;;;;;;0.50;0.20;;;5.30;99.90;;;;;;5016993;28;20088;-77
2021/01/22 07:58:19;;;;;;;2.58;0.40;;;5.30;99.90;;;;;;5047808;28;20033;-78
2021/01/22 08:00:45;;;;;;;0.25;0.22;;;5.40;99.90;;;;;;5040383;28;20025;-78
2021/01/22 08:03:13;;;;;;;4.13;0.40;;;5.50;99.90;;;;;;5024165;28;20544;-77
2021/01/22 08:05:40;;;;;;;0.57;0.30;;;5.60;99.90;;;;;;5019618;28;20034;-78
2021/01/22 08:08:20;;;;;;;2.30;0.40;;;5.70;99.90;;;;;;5016216;28;20036;-77
2021/01/22 08:10:46;;;;;;;1.10;0.40;;;5.70;99.90;;;;;;5041296;28;20037;-75
2021/01/22 08:13:14;;;;;;;0.50;0.30;;;5.80;99.90;;;;;;5039270;28;20045;-77
2021/01/22 08:15:40;;;;;;;0.68;0.20;;;5.90;99.90;;;;;;5028508;28;20040;-77
2021/01/22 08:18:06;;;;;;;0.25;0.25;;;5.80;99.90;;;;;;5004268;28;20071;-78
2021/01/22 08:20:33;;;;;;;1.48;0.40;;;5.90;99.90;;;;;;4996227;28;20032;-78
2021/01/22 08:22:59;;;;;;;0.30;0.30;;;5.90;99.90;;;;;;5017748;28;20525;-78
2021/01/22 08:25:36;;;;;;;1.02;0.30;;;6.00;99.90;;;;;;5038319;28;20050;-77
2021/01/22 08:28:04;;;;;;;0.57;0.22;;;6.10;99.90;;;;;;5025700;28;20406;-77
2021/01/22 08:30:30;;;;;;;3.15;0.40;;;6.10;99.90;;;;;;5048177;28;20037;-78
2021/01/22 08:32:57;;;;;;;1.77;0.20;;;6.10;99.90;;;;;;5028930;28;20025;-79
2021/01/22 08:35:26;;;;;;;0.30;0.20;;;6.20;99.90;;;;;;5019662;28;20026;-79
2021/01/22 08:37:53;;;;;;;0.30;0.20;;;6.20;99.90;;;;;;5015920;28;20044;-78
2021/01/22 08:40:20;;;;;;;0.20;0.20;;;6.20;99.90;;;;;;5017894;28;20033;-78
2021/01/22 08:42:59;;;;;;;1.48;0.52;;;6.20;99.90;;;;;;5032901;28;20211;-78
2021/01/22 08:45:25;;;;;;;0.40;0.20;;;6.20;99.90;;;;;;4998799;28;20030;-78
2021/01/22 08:47:51;;;;;;;0.73;0.40;;;6.20;99.90;;;;;;5016801;28;20033;-78
2021/01/22 08:50:18;;;;;;;0.75;0.45;;;6.20;99.90;;;;;;4996300;28;20485;-79
2021/01/22 08:52:44;;;;;;;1.17;0.38;;;6.20;99.90;;;;;;5015650;28;20025;-78
2021/01/22 08:55:20;;;;;;;0.52;0.32;;;6.30;99.90;;;;;;5009956;28;20511;-78
2021/01/22 08:58:18;;;;;;;0.40;0.20;;;6.30;99.90;;;;;;5027813;28;20033;-78
2021/01/22 09:00:53;;;;;;;1.38;0.32;;;6.30;99.90;;;;;;4982008;28;20516;-77
2021/01/22 09:03:23;;;;;;;0.20;0.20;;;6.40;99.90;;;;;;5015742;28;20033;-79
2021/01/22 09:05:49;;;;;;;0.30;0.30;;;6.50;99.90;;;;;;5012407;28;20029;-79
2021/01/22 09:08:15;;;;;;;0.30;0.20;;;6.60;99.90;;;;;;5027217;28;20029;-79
2021/01/22 09:10:45;;;;;;;1.63;0.25;;;6.70;99.90;;;;;;5021459;28;20026;-79
2021/01/22 09:13:17;;;;;;;0.55;0.20;;;6.80;99.90;;;;;;5013156;28;20040;-79
2021/01/22 09:15:44;;;;;;;0.95;0.20;;;7.00;99.90;;;;;;5031174;28;20044;-79
2021/01/22 09:18:18;;;;;;;2.08;0.38;;;7.10;99.90;;;;;;5004637;28;20088;-79
2021/01/22 09:20:44;;;;;;;0.60;0.30;;;7.10;99.90;;;;;;5029535;28;20041;-79
2021/01/22 09:23:11;;;;;;;2.25;0.20;;;7.20;99.90;;;;;;5035765;28;20030;-78
2021/01/22 09:25:37;;;;;;;0.77;0.20;;;7.20;99.90;;;;;;5015739;28;20030;-78
2021/01/22 09:28:03;;;;;;;2.67;0.85;;;7.30;99.90;;;;;;5012031;28;20045;-79
2021/01/22 09:30:29;;;;;;;0.90;0.32;;;7.40;99.90;;;;;;5035969;28;20025;-78
2021/01/22 09:32:57;;;;;;;1.45;0.20;;;7.40;99.90;;;;;;5030784;28;20079;-77
2021/01/22 09:35:26;;;;;;;2.10;0.20;;;7.50;99.90;;;;;;5010889;28;20497;-79
2021/01/22 09:37:52;;;;;;;0.70;0.20;;;7.60;99.90;;;;;;5027679;28;20025;-77
2021/01/22 09:40:19;;;;;;;0.65;0.15;;;7.60;99.90;;;;;;5013096;28;20018;-78
2021/01/22 09:42:45;;;;;;;2.10;0.47;;;7.70;99.90;;;;;;5010727;28;20018;-79
2021/01/22 09:45:12;;;;;;;2.03;0.38;;;7.70;99.90;;;;;;5024200;28;20545;-78
2021/01/22 09:47:38;;;;;;;1.17;0.30;;;7.80;99.90;;;;;;5014552;28;20079;-77
2021/01/22 09:50:06;;;;;;;4.18;0.35;;;7.80;99.90;;;;;;5044192;28;20029;-76
2021/01/22 09:52:33;;;;;;;0.40;0.20;;;8.00;99.90;;;;;;5016315;28;20216;-78
2021/01/22 09:54:59;;;;;;;0.50;0.20;;;8.00;99.90;;;;;;5020082;28;20610;-78
2021/01/22 09:57:25;;;;;;;1.08;0.20;;;8.10;99.90;;;;;;5028998;28;20052;-78
2021/01/22 09:59:50;;;;;;;1.15;0.30;;;8.10;99.90;;;;;;5029454;28;20076;-77
2021/01/22 10:02:16;;;;;;;0.60;0.30;;;8.20;99.90;;;;;;5006149;28;20447;-77
2021/01/22 10:04:42;;;;;;;0.10;0.10;;;8.20;99.90;;;;;;5010814;28;20038;-76
2021/01/22 10:07:07;;;;;;;1.55;0.10;;;8.20;99.90;;;;;;5010124;28;20068;-77
2021/01/22 10:09:33;;;;;;;2.03;0.30;;;8.10;99.90;;;;;;4993517;28;20120;-77
2021/01/22 10:11:59;;;;;;;1.65;0.50;;;8.10;99.90;;;;;;5008378;28;20041;-78
2021/01/22 10:14:26;;;;;;;0.80;0.20;;;8.00;99.90;;;;;;5026025;28;20029;-78
2021/01/22 10:16:52;;;;;;;1.63;0.20;;;8.10;99.90;;;;;;4985022;28;20030;-77
2021/01/22 10:19:18;;;;;;;0.32;0.20;;;8.10;99.90;;;;;;4991486;28;20109;-78
2021/01/22 10:21:43;;;;;;;0.80;0.32;;;8.20;99.90;;;;;;4994245;28;20132;-78
2021/01/22 10:24:09;;;;;;;4.93;0.30;;;8.30;99.90;;;;;;5011079;28;20037;-78
2021/01/22 10:26:35;;;;;;;1.63;0.30;;;8.40;99.90;;;;;;4994989;28;20041;-78
2021/01/22 10:29:01;;;;;;;2.30;0.35;;;8.40;99.90;;;;;;5001588;28;20037;-78
2021/01/22 10:31:27;;;;;;;2.30;0.40;;;8.40;99.90;;;;;;4998363;28;20034;-77
2021/01/22 10:33:52;;;;;;;0.47;0.20;;;8.40;99.90;;;;;;5029598;28;20033;-78
2021/01/22 10:36:18;;;;;;;0.30;0.20;;;8.40;99.90;;;;;;5010745;28;20059;-78
2021/01/22 10:38:44;;;;;;;1.40;0.32;;;8.30;99.90;;;;;;5043434;28;20024;-79
2021/01/22 10:41:10;;;;;;;1.55;0.70;;;8.30;99.90;;;;;;5009008;28;20025;-78
2021/01/22 10:43:37;;;;;;;1.08;0.40;;;8.30;99.90;;;;;;4995206;28;20041;-79
2021/01/22 10:46:03;;;;;;;1.05;0.30;;;8.30;99.90;;;;;;5012286;28;20029;-80
2021/01/22 10:48:28;;;;;;;1.58;0.32;;;8.30;99.90;;;;;;4978780;28;20041;-78
2021/01/22 10:50:55;;;;;;;2.13;0.40;;;8.30;99.90;;;;;;4991304;28;20128;-79
2021/01/22 10:53:24;;;;;;;1.75;0.20;;;8.30;99.90;;;;;;5023522;28;20029;-77
2021/01/22 10:55:51;;;;;;;2.80;0.40;;;8.30;99.90;;;;;;5039050;28;20032;-78
2021/01/22 10:58:17;;;;;;;1.90;0.20;;;8.40;99.90;;;;;;5002257;28;20594;-80
2021/01/22 11:00:43;;;;;;;2.58;0.30;;;8.50;99.90;;;;;;5002812;28;20032;-78
2021/01/22 11:03:08;;;;;;;0.90;0.40;;;8.50;99.90;;;;;;5023368;28;20040;-78
2021/01/22 11:05:35;;;;;;;1.85;0.43;;;8.60;99.90;;;;;;4997084;28;20072;-79
2021/01/22 11:08:02;;;;;;;2.75;0.50;;;8.60;99.90;;;;;;5000995;28;20034;-79
2021/01/22 11:10:28;;;;;;;2.63;0.32;;;8.60;99.90;;;;;;4996833;28;20021;-79
2021/01/22 11:12:54;;;;;;;0.40;0.20;;;8.60;99.90;;;;;;5011901;28;20033;-79
2021/01/22 11:15:20;;;;;;;3.05;0.30;;;8.70;99.90;;;;;;4985469;28;20120;-79
2021/01/22 11:17:46;;;;;;;0.45;0.20;;;8.70;99.90;;;;;;5021697;28;20033;-78
2021/01/22 11:20:13;;;;;;;1.27;0.30;;;8.80;99.90;;;;;;5020987;28;20128;-79
2021/01/22 11:22:39;;;;;;;0.57;0.35;;;8.80;99.90;;;;;;5014027;28;20065;-78
2021/01/22 11:25:05;;;;;;;1.55;0.20;;;8.90;99.90;;;;;;5015324;28;20033;-77
2021/01/22 11:27:31;;;;;;;1.10;0.30;;;8.90;99.90;;;;;;5017893;28;20033;-77
2021/01/22 11:29:57;;;;;;;1.60;0.17;;;9.00;99.90;;;;;;5034360;28;20390;-77
2021/01/22 11:32:23;;;;;;;1.60;0.22;;;9.10;99.90;;;;;;5027860;28;20041;-78
2021/01/22 11:34:49;;;;;;;0.65;0.38;;;9.20;99.90;;;;;;5000108;28;20120;-77
2021/01/22 11:37:14;;;;;;;2.88;0.35;;;9.30;99.90;;;;;;5013444;28;20417;-77
2021/01/22 11:39:40;;;;;;;0.90;0.43;;;9.30;99.90;;;;;;5033215;28;20082;-77
2021/01/22 11:42:09;;;;;;;2.85;0.65;;;9.40;99.90;;;;;;4999843;28;20064;-77
2021/01/22 11:44:36;;;;;;;0.22;0.22;;;9.50;99.90;;;;;;5036889;28;20060;-77
2021/01/22 11:47:02;;;;;;;1.40;0.38;;;9.50;99.90;;;;;;5013885;28;20057;-79
2021/01/22 11:49:28;;;;;;;0.75;0.25;;;9.50;99.90;;;;;;5015422;28;20098;-78
2021/01/22 11:51:54;;;;;;;3.53;0.28;;;9.50;99.90;;;;;;5033143;28;20521;-80
2021/01/22 11:54:20;;;;;;;1.70;0.30;;;9.50;99.90;;;;;;5032701;28;20026;-79
2021/01/22 11:56:46;;;;;;;1.92;0.30;;;9.40;99.90;;;;;;5033162;28;20037;-79
2021/01/22 11:59:13;;;;;;;0.85;0.30;;;9.50;99.90;;;;;;5014335;28;20025;-77
2021/01/22 12:01:39;;;;;;;1.90;0.50;;;9.50;99.90;;;;;;5015006;28;20041;-78
2021/01/22 12:04:05;;;;;;;1.30;0.30;;;9.50;99.90;;;;;;5014800;28;20037;-77
2021/01/22 12:06:30;;;;;;;0.90;0.32;;;9.50;99.90;;;;;;5014045;28;20079;-77
2021/01/22 12:08:56;;;;;;;1.20;0.38;;;9.50;99.90;;;;;;5034640;28;20038;-78
2021/01/22 12:11:22;;;;;;;1.13;0.30;;;9.50;99.90;;;;;;5000766;28;20030;-78
2021/01/22 12:13:47;;;;;;;0.30;0.30;;;9.50;99.90;;;;;;5001423;28;20133;-79
2021/01/22 12:16:13;;;;;;;0.52;0.20;;;9.40;99.90;;;;;;5022077;28;20029;-77
2021/01/22 12:18:39;;;;;;;2.25;0.22;;;9.50;99.90;;;;;;5041241;28;20018;-78
2021/01/22 12:21:06;;;;;;;0.80;0.20;;;9.40;99.90;;;;;;5007218;28;20048;-78
2021/01/22 12:23:32;;;;;;;0.52;0.28;;;9.50;99.90;;;;;;5040064;28;20041;-79
2021/01/22 12:25:58;;;;;;;0.20;0.20;;;9.40;99.90;;;;;;5007243;28;20037;-78
2021/01/22 12:28:24;;;;;;;1.52;0.47;;;9.40;99.90;;;;;;5040169;28;20037;-77
2021/01/22 12:30:49;;;;;;;1.00;0.45;;;9.30;99.90;;;;;;5023164;28;20037;-79
2021/01/22 12:33:15;;;;;;;0.77;0.32;;;9.20;99.90;;;;;;5039602;28;20033;-77
2021/01/22 12:35:41;;;;;;;0.73;0.40;;;9.10;99.90;;;;;;5033977;28;20021;-77
2021/01/22 12:38:07;;;;;;;2.58;0.50;;;9.10;99.90;;;;;;5027364;28;20108;-79
2021/01/22 12:40:33;;;;;;;1.52;0.32;;;9.00;99.90;;;;;;5003898;28;20145;-77
2021/01/22 12:42:58;;;;;;;0.60;0.30;;;9.00;99.90;;;;;;5047772;28;20026;-78
2021/01/22 12:45:24;;;;;;;2.10;0.47;;;8.90;99.90;;;;;;5037499;28;20029;-77
2021/01/22 12:47:53;;;;;;;2.05;0.40;;;8.90;99.90;;;;;;5019762;28;20021;-78
2021/01/22 12:50:20;;;;;;;1.00;0.40;;;8.90;99.90;;;;;;5020538;28;20388;-78
2021/01/22 12:52:45;;;;;;;2.08;0.40;;;9.00;99.90;;;;;;5037278;28;20036;-77
2021/01/22 12:55:12;;;;;;;2.60;0.35;;;9.00;99.90;;;;;;5035992;28;20033;-78
2021/01/22 12:57:38;;;;;;;1.08;0.30;;;9.00;99.90;;;;;;5019452;28;20037;-78
2021/01/22 13:00:07;;;;;;;0.60;0.30;;;9.10;99.90;;;;;;5015057;28;20117;-78
2021/01/22 13:02:33;;;;;;;0.93;0.50;;;9.20;99.90;;;;;;4995208;28;20713;-78